Adrian, MN (56110)

4:59 AM CDT on August 31, 2015 (GMT -0500)
WolfPork | | Change Station
CLOSE
Current Station
Personal Weather Station
Location: Adrian, MN
Elevation: 1568 ft
Nearby Weather Stations

Elev 1568 ft 43.59 °N, 95.96 °W | Updated 4 minutes ago

Clear
Clear
62.6 °F
Feels Like 62.6 °F
N
7.3
Wind Variable Wind from SSE

Today
High -- | Low -- °F
--% Chance of Precip.
Yesterday
High -- | Low -- °F
Precip. -- in
6:46 AM 8:01 PM
Waning Gibbous, 96% visible
Pressure 29.92 in
Visibility 2.5 miles
Clouds
Dew Point 60 °F
Humidity 93%
Rainfall 0.00 in
Snow Depth Not available.
UV Not available.
Pollen 10.40 out of 12
Air Quality Not available.
Flu Activity Not available.
METAR KLYV 310914Z AUTO 17005KT 2 1/2SM BR 17/16 A2992 RMK AO2 SKY OBSCURED
Pressure 29.92 in
Visibility 2.5 miles
Clouds
Dew Point 60 °F
Humidity 93%
Rainfall 0.00 in
Snow Depth Not available.
UV Not available.
Pollen 10.40 out of 12
Air Quality Not available.
Flu Activity Not available.
METAR KLYV 310914Z AUTO 17005KT 2 1/2SM BR 17/16 A2992 RMK AO2 SKY OBSCURED

10-Day Weather Forecast

×

Almanac

Astronomy

Aug. 31, 2015 Rise Set
Actual Time
Civil Twilight
Nautical Twilight
Astronomical Twilight
Moon
Length of Visible Light
Length of Day
Tomorrow will be .
, % of the Moon is Illuminated

Today's Extremes

State Highs State Lows

Community

WunderPhotos

Upload Photos

1,851,229 photos uploaded!

WunderBlogs® & News

Nearby

Air Quality

  Air Quality AQ Index Pollutant
Not available.

Snow Depth

Station Depth Elevation

Earthquake Activity

City Distance Mag. Time & Date
Minimum magnitude displayed is 2.5.

Coastal Water Temperatures

Place Temperature

Stations

Nearby Weather Stations

Station Location Temp. Windchill Dew Point Humidity Wind Precip. Elev Updated Type